sensor_id;sensor_type;location;lat;lon;timestamp;P1;durP1;ratioP1;P2;durP2;ratioP2
37527;SDS011;23372;52.050;4.810;2022-10-22T00:02:11;9.90;;;5.05;;
37527;SDS011;23372;52.050;4.810;2022-10-22T00:04:39;16.77;;;5.25;;
37527;SDS011;23372;52.050;4.810;2022-10-22T00:07:05;10.50;;;4.72;;
37527;SDS011;23372;52.050;4.810;2022-10-22T00:09:31;9.60;;;5.18;;
37527;SDS011;23372;52.050;4.810;2022-10-22T00:11:56;10.32;;;4.75;;
37527;SDS011;23372;52.050;4.810;2022-10-22T00:14:22;14.68;;;5.50;;
37527;SDS011;23372;52.050;4.810;2022-10-22T00:16:47;14.77;;;5.18;;
37527;SDS011;23372;52.050;4.810;2022-10-22T00:19:13;10.63;;;5.82;;
37527;SDS011;23372;52.050;4.810;2022-10-22T00:21:39;13.10;;;5.28;;
37527;SDS011;23372;52.050;4.810;2022-10-22T00:24:04;25.48;;;8.23;;
37527;SDS011;23372;52.050;4.810;2022-10-22T00:26:30;13.25;;;4.90;;
37527;SDS011;23372;52.050;4.810;2022-10-22T00:28:55;12.20;;;5.05;;
37527;SDS011;23372;52.050;4.810;2022-10-22T00:31:21;11.07;;;5.85;;
37527;SDS011;23372;52.050;4.810;2022-10-22T00:33:47;16.90;;;6.07;;
37527;SDS011;23372;52.050;4.810;2022-10-22T00:36:13;20.52;;;5.40;;
37527;SDS011;23372;52.050;4.810;2022-10-22T00:38:39;11.35;;;5.40;;
37527;SDS011;23372;52.050;4.810;2022-10-22T00:41:05;12.15;;;6.03;;
37527;SDS011;23372;52.050;4.810;2022-10-22T00:43:30;13.07;;;6.45;;
37527;SDS011;23372;52.050;4.810;2022-10-22T00:45:56;18.60;;;6.18;;
37527;SDS011;23372;52.050;4.810;2022-10-22T00:48:22;14.93;;;5.90;;
37527;SDS011;23372;52.050;4.810;2022-10-22T00:51:03;15.27;;;6.28;;
37527;SDS011;23372;52.050;4.810;2022-10-22T00:53:43;10.23;;;5.20;;
37527;SDS011;23372;52.050;4.810;2022-10-22T00:56:13;14.32;;;5.32;;
37527;SDS011;23372;52.050;4.810;2022-10-22T00:58:41;19.23;;;5.55;;
37527;SDS011;23372;52.050;4.810;2022-10-22T01:01:12;13.27;;;6.13;;
37527;SDS011;23372;52.050;4.810;2022-10-22T01:03:41;10.93;;;5.55;;
37527;SDS011;23372;52.050;4.810;2022-10-22T01:06:06;11.15;;;5.80;;
37527;SDS011;23372;52.050;4.810;2022-10-22T01:11:19;17.60;;;5.75;;
37527;SDS011;23372;52.050;4.810;2022-10-22T01:13:57;18.17;;;6.70;;
37527;SDS011;23372;52.050;4.810;2022-10-22T01:16:46;13.00;;;4.82;;
37527;SDS011;23372;52.050;4.810;2022-10-22T01:19:38;25.45;;;5.80;;
37527;SDS011;23372;52.050;4.810;2022-10-22T01:22:33;18.23;;;7.57;;
37527;SDS011;23372;52.050;4.810;2022-10-22T01:25:16;13.27;;;5.05;;
37527;SDS011;23372;52.050;4.810;2022-10-22T01:30:52;14.40;;;5.13;;
37527;SDS011;23372;52.050;4.810;2022-10-22T01:33:20;8.90;;;5.18;;
37527;SDS011;23372;52.050;4.810;2022-10-22T01:35:48;13.27;;;5.55;;
37527;SDS011;23372;52.050;4.810;2022-10-22T01:38:17;17.42;;;5.47;;
37527;SDS011;23372;52.050;4.810;2022-10-22T01:40:45;11.55;;;4.85;;
37527;SDS011;23372;52.050;4.810;2022-10-22T01:43:11;15.85;;;4.82;;
37527;SDS011;23372;52.050;4.810;2022-10-22T01:45:38;14.57;;;5.00;;
37527;SDS011;23372;52.050;4.810;2022-10-22T01:50:57;13.45;;;5.30;;
37527;SDS011;23372;52.050;4.810;2022-10-22T01:53:39;8.23;;;4.60;;
37527;SDS011;23372;52.050;4.810;2022-10-22T01:56:23;12.32;;;4.75;;
37527;SDS011;23372;52.050;4.810;2022-10-22T02:04:27;23.20;;;5.25;;
37527;SDS011;23372;52.050;4.810;2022-10-22T02:06:57;14.25;;;4.57;;
37527;SDS011;23372;52.050;4.810;2022-10-22T02:09:25;22.27;;;5.78;;
37527;SDS011;23372;52.050;4.810;2022-10-22T02:11:54;14.10;;;4.88;;
37527;SDS011;23372;52.050;4.810;2022-10-22T02:14:22;19.80;;;5.65;;
37527;SDS011;23372;52.050;4.810;2022-10-22T02:16:51;14.68;;;4.78;;
37527;SDS011;23372;52.050;4.810;2022-10-22T02:21:47;18.08;;;5.07;;
37527;SDS011;23372;52.050;4.810;2022-10-22T02:24:13;14.57;;;4.93;;
37527;SDS011;23372;52.050;4.810;2022-10-22T02:26:41;11.85;;;4.13;;
37527;SDS011;23372;52.050;4.810;2022-10-22T02:29:19;13.15;;;4.43;;
37527;SDS011;23372;52.050;4.810;2022-10-22T02:31:49;7.60;;;4.15;;
37527;SDS011;23372;52.050;4.810;2022-10-22T02:34:18;11.30;;;4.32;;
37527;SDS011;23372;52.050;4.810;2022-10-22T02:36:47;13.55;;;4.80;;
37527;SDS011;23372;52.050;4.810;2022-10-22T02:39:15;9.10;;;4.18;;
37527;SDS011;23372;52.050;4.810;2022-10-22T02:41:42;15.65;;;4.57;;
37527;SDS011;23372;52.050;4.810;2022-10-22T02:44:08;12.75;;;3.92;;
37527;SDS011;23372;52.050;4.810;2022-10-22T02:46:35;19.48;;;4.45;;
37527;SDS011;23372;52.050;4.810;2022-10-22T02:49:02;12.82;;;4.47;;
37527;SDS011;23372;52.050;4.810;2022-10-22T02:51:27;12.35;;;4.28;;
37527;SDS011;23372;52.050;4.810;2022-10-22T02:53:53;9.57;;;4.20;;
37527;SDS011;23372;52.050;4.810;2022-10-22T02:56:18;15.35;;;4.55;;
37527;SDS011;23372;52.050;4.810;2022-10-22T02:58:44;8.25;;;4.15;;
37527;SDS011;23372;52.050;4.810;2022-10-22T03:01:09;13.25;;;4.28;;
37527;SDS011;23372;52.050;4.810;2022-10-22T03:03:35;9.43;;;4.05;;
37527;SDS011;23372;52.050;4.810;2022-10-22T03:06:00;10.77;;;3.95;;
37527;SDS011;23372;52.050;4.810;2022-10-22T03:08:26;10.73;;;3.47;;
37527;SDS011;23372;52.050;4.810;2022-10-22T03:10:51;9.40;;;3.88;;
37527;SDS011;23372;52.050;4.810;2022-10-22T03:13:17;11.40;;;3.78;;
37527;SDS011;23372;52.050;4.810;2022-10-22T03:15:42;14.30;;;3.65;;
37527;SDS011;23372;52.050;4.810;2022-10-22T03:18:08;14.43;;;3.67;;
37527;SDS011;23372;52.050;4.810;2022-10-22T03:20:33;9.98;;;3.60;;
37527;SDS011;23372;52.050;4.810;2022-10-22T03:22:59;9.93;;;3.50;;
37527;SDS011;23372;52.050;4.810;2022-10-22T03:25:26;11.95;;;3.53;;
37527;SDS011;23372;52.050;4.810;2022-10-22T03:27:52;11.68;;;3.92;;
37527;SDS011;23372;52.050;4.810;2022-10-22T03:30:20;9.50;;;3.30;;
37527;SDS011;23372;52.050;4.810;2022-10-22T03:32:46;8.40;;;3.58;;
37527;SDS011;23372;52.050;4.810;2022-10-22T03:35:11;10.90;;;3.97;;
37527;SDS011;23372;52.050;4.810;2022-10-22T03:37:37;11.20;;;3.80;;
37527;SDS011;23372;52.050;4.810;2022-10-22T03:40:03;14.55;;;4.15;;
37527;SDS011;23372;52.050;4.810;2022-10-22T03:42:31;16.30;;;3.70;;
37527;SDS011;23372;52.050;4.810;2022-10-22T03:44:56;13.43;;;3.40;;
37527;SDS011;23372;52.050;4.810;2022-10-22T03:47:22;16.08;;;4.07;;
37527;SDS011;23372;52.050;4.810;2022-10-22T03:49:48;17.55;;;3.85;;
37527;SDS011;23372;52.050;4.810;2022-10-22T03:52:15;18.40;;;3.90;;
37527;SDS011;23372;52.050;4.810;2022-10-22T03:54:40;9.23;;;4.05;;
37527;SDS011;23372;52.050;4.810;2022-10-22T03:57:06;11.63;;;4.30;;
37527;SDS011;23372;52.050;4.810;2022-10-22T03:59:42;12.02;;;4.20;;
37527;SDS011;23372;52.050;4.810;2022-10-22T04:02:09;12.80;;;3.45;;
37527;SDS011;23372;52.050;4.810;2022-10-22T04:04:36;14.68;;;3.78;;
37527;SDS011;23372;52.050;4.810;2022-10-22T04:07:02;11.52;;;3.47;;
37527;SDS011;23372;52.050;4.810;2022-10-22T04:09:31;18.58;;;4.03;;
37527;SDS011;23372;52.050;4.810;2022-10-22T04:11:57;12.43;;;3.92;;
37527;SDS011;23372;52.050;4.810;2022-10-22T04:14:23;14.88;;;4.00;;
37527;SDS011;23372;52.050;4.810;2022-10-22T04:16:48;14.40;;;3.55;;
37527;SDS011;23372;52.050;4.810;2022-10-22T04:19:14;17.35;;;4.30;;
37527;SDS011;23372;52.050;4.810;2022-10-22T04:21:40;12.93;;;3.65;;
37527;SDS011;23372;52.050;4.810;2022-10-22T04:24:05;18.48;;;4.80;;
37527;SDS011;23372;52.050;4.810;2022-10-22T04:26:31;13.57;;;4.00;;
37527;SDS011;23372;52.050;4.810;2022-10-22T04:28:56;12.43;;;4.47;;
37527;SDS011;23372;52.050;4.810;2022-10-22T04:31:22;11.65;;;4.13;;
37527;SDS011;23372;52.050;4.810;2022-10-22T04:33:52;14.05;;;4.55;;
37527;SDS011;23372;52.050;4.810;2022-10-22T04:36:19;12.10;;;3.95;;
37527;SDS011;23372;52.050;4.810;2022-10-22T04:38:45;9.95;;;3.67;;
37527;SDS011;23372;52.050;4.810;2022-10-22T04:41:16;8.57;;;4.57;;
37527;SDS011;23372;52.050;4.810;2022-10-22T04:43:43;14.38;;;4.32;;
37527;SDS011;23372;52.050;4.810;2022-10-22T04:46:09;8.35;;;3.78;;
37527;SDS011;23372;52.050;4.810;2022-10-22T04:48:36;18.40;;;4.43;;
37527;SDS011;23372;52.050;4.810;2022-10-22T04:51:04;11.45;;;4.07;;
37527;SDS011;23372;52.050;4.810;2022-10-22T04:53:31;19.98;;;5.93;;
37527;SDS011;23372;52.050;4.810;2022-10-22T04:56:10;10.23;;;3.47;;
37527;SDS011;23372;52.050;4.810;2022-10-22T04:58:36;14.70;;;3.75;;
37527;SDS011;23372;52.050;4.810;2022-10-22T05:01:09;12.77;;;3.58;;
37527;SDS011;23372;52.050;4.810;2022-10-22T05:03:40;20.30;;;4.28;;
37527;SDS011;23372;52.050;4.810;2022-10-22T05:06:06;13.57;;;4.70;;
37527;SDS011;23372;52.050;4.810;2022-10-22T05:08:32;10.90;;;3.60;;
37527;SDS011;23372;52.050;4.810;2022-10-22T05:10:58;8.38;;;3.53;;
37527;SDS011;23372;52.050;4.810;2022-10-22T05:13:24;13.82;;;4.63;;
37527;SDS011;23372;52.050;4.810;2022-10-22T05:15:49;9.07;;;3.50;;
37527;SDS011;23372;52.050;4.810;2022-10-22T05:18:15;14.65;;;3.50;;
37527;SDS011;23372;52.050;4.810;2022-10-22T05:20:40;9.57;;;3.67;;
37527;SDS011;23372;52.050;4.810;2022-10-22T05:23:06;14.43;;;3.92;;
37527;SDS011;23372;52.050;4.810;2022-10-22T05:25:36;12.15;;;4.05;;
37527;SDS011;23372;52.050;4.810;2022-10-22T05:28:04;11.03;;;3.63;;
37527;SDS011;23372;52.050;4.810;2022-10-22T05:30:30;13.10;;;3.97;;
37527;SDS011;23372;52.050;4.810;2022-10-22T05:32:55;15.00;;;3.95;;
37527;SDS011;23372;52.050;4.810;2022-10-22T05:35:21;13.23;;;3.65;;
37527;SDS011;23372;52.050;4.810;2022-10-22T05:37:46;11.27;;;4.00;;
37527;SDS011;23372;52.050;4.810;2022-10-22T05:40:12;6.00;;;3.55;;
37527;SDS011;23372;52.050;4.810;2022-10-22T05:42:37;13.43;;;3.70;;
37527;SDS011;23372;52.050;4.810;2022-10-22T05:45:03;19.27;;;4.38;;
37527;SDS011;23372;52.050;4.810;2022-10-22T05:47:29;9.32;;;4.05;;
37527;SDS011;23372;52.050;4.810;2022-10-22T05:49:54;15.88;;;3.55;;
37527;SDS011;23372;52.050;4.810;2022-10-22T05:52:21;19.20;;;3.78;;
37527;SDS011;23372;52.050;4.810;2022-10-22T05:54:47;15.88;;;3.28;;
37527;SDS011;23372;52.050;4.810;2022-10-22T05:57:13;13.90;;;4.60;;
37527;SDS011;23372;52.050;4.810;2022-10-22T05:59:38;9.43;;;3.40;;
37527;SDS011;23372;52.050;4.810;2022-10-22T06:02:03;13.95;;;3.78;;
37527;SDS011;23372;52.050;4.810;2022-10-22T06:04:29;15.43;;;4.32;;
37527;SDS011;23372;52.050;4.810;2022-10-22T06:06:55;10.30;;;3.40;;
37527;SDS011;23372;52.050;4.810;2022-10-22T06:09:39;8.73;;;3.67;;
37527;SDS011;23372;52.050;4.810;2022-10-22T06:12:04;14.15;;;4.30;;
37527;SDS011;23372;52.050;4.810;2022-10-22T06:14:34;7.10;;;3.53;;
37527;SDS011;23372;52.050;4.810;2022-10-22T06:17:00;13.38;;;4.22;;
37527;SDS011;23372;52.050;4.810;2022-10-22T06:19:25;13.00;;;3.80;;
37527;SDS011;23372;52.050;4.810;2022-10-22T06:21:51;8.80;;;4.07;;
37527;SDS011;23372;52.050;4.810;2022-10-22T06:24:17;14.48;;;4.15;;
37527;SDS011;23372;52.050;4.810;2022-10-22T06:26:43;11.07;;;4.20;;
37527;SDS011;23372;52.050;4.810;2022-10-22T06:29:08;16.75;;;4.82;;
37527;SDS011;23372;52.050;4.810;2022-10-22T06:31:35;13.68;;;5.32;;
37527;SDS011;23372;52.050;4.810;2022-10-22T06:34:09;9.43;;;4.55;;
37527;SDS011;23372;52.050;4.810;2022-10-22T06:36:36;14.98;;;5.65;;
37527;SDS011;23372;52.050;4.810;2022-10-22T06:39:02;18.40;;;4.77;;
37527;SDS011;23372;52.050;4.810;2022-10-22T06:41:28;9.32;;;4.38;;
37527;SDS011;23372;52.050;4.810;2022-10-22T06:43:54;13.27;;;4.18;;
37527;SDS011;23372;52.050;4.810;2022-10-22T06:46:21;13.70;;;5.75;;
37527;SDS011;23372;52.050;4.810;2022-10-22T06:48:55;14.93;;;4.28;;
37527;SDS011;23372;52.050;4.810;2022-10-22T06:51:22;12.68;;;4.45;;
37527;SDS011;23372;52.050;4.810;2022-10-22T06:53:48;7.90;;;3.45;;
37527;SDS011;23372;52.050;4.810;2022-10-22T06:56:16;13.48;;;4.05;;
37527;SDS011;23372;52.050;4.810;2022-10-22T06:58:45;13.63;;;3.85;;
37527;SDS011;23372;52.050;4.810;2022-10-22T07:01:13;18.83;;;4.95;;
37527;SDS011;23372;52.050;4.810;2022-10-22T07:03:40;15.45;;;4.07;;
37527;SDS011;23372;52.050;4.810;2022-10-22T07:06:07;14.68;;;3.83;;
37527;SDS011;23372;52.050;4.810;2022-10-22T07:08:34;16.85;;;3.88;;
37527;SDS011;23372;52.050;4.810;2022-10-22T07:11:04;14.43;;;3.85;;
37527;SDS011;23372;52.050;4.810;2022-10-22T07:13:41;10.88;;;3.78;;
37527;SDS011;23372;52.050;4.810;2022-10-22T07:16:07;11.77;;;3.80;;
37527;SDS011;23372;52.050;4.810;2022-10-22T07:18:33;10.43;;;3.47;;
37527;SDS011;23372;52.050;4.810;2022-10-22T07:21:00;12.18;;;5.15;;
37527;SDS011;23372;52.050;4.810;2022-10-22T07:23:26;12.32;;;4.03;;
37527;SDS011;23372;52.050;4.810;2022-10-22T07:25:52;14.70;;;3.75;;
37527;SDS011;23372;52.050;4.810;2022-10-22T07:28:17;16.27;;;3.83;;
37527;SDS011;23372;52.050;4.810;2022-10-22T07:30:43;12.18;;;3.42;;
37527;SDS011;23372;52.050;4.810;2022-10-22T07:33:08;17.42;;;4.00;;
37527;SDS011;23372;52.050;4.810;2022-10-22T07:35:35;11.00;;;3.65;;
37527;SDS011;23372;52.050;4.810;2022-10-22T07:38:01;15.05;;;3.58;;
37527;SDS011;23372;52.050;4.810;2022-10-22T07:40:27;10.07;;;3.25;;
37527;SDS011;23372;52.050;4.810;2022-10-22T07:42:52;13.85;;;3.20;;
37527;SDS011;23372;52.050;4.810;2022-10-22T07:45:18;21.90;;;3.67;;
37527;SDS011;23372;52.050;4.810;2022-10-22T07:47:45;10.68;;;3.30;;
37527;SDS011;23372;52.050;4.810;2022-10-22T07:50:11;20.85;;;3.38;;
37527;SDS011;23372;52.050;4.810;2022-10-22T07:52:37;15.75;;;2.78;;
37527;SDS011;23372;52.050;4.810;2022-10-22T07:55:03;19.27;;;3.47;;
37527;SDS011;23372;52.050;4.810;2022-10-22T07:57:29;12.73;;;2.22;;
37527;SDS011;23372;52.050;4.810;2022-10-22T07:59:54;13.20;;;2.70;;
37527;SDS011;23372;52.050;4.810;2022-10-22T08:02:22;12.82;;;3.53;;
37527;SDS011;23372;52.050;4.810;2022-10-22T08:04:48;27.95;;;4.32;;
37527;SDS011;23372;52.050;4.810;2022-10-22T08:07:14;13.75;;;2.97;;
37527;SDS011;23372;52.050;4.810;2022-10-22T08:09:39;12.73;;;2.90;;
37527;SDS011;23372;52.050;4.810;2022-10-22T08:12:05;8.65;;;2.50;;
37527;SDS011;23372;52.050;4.810;2022-10-22T08:14:30;16.60;;;2.60;;
37527;SDS011;23372;52.050;4.810;2022-10-22T08:16:56;14.40;;;2.70;;
37527;SDS011;23372;52.050;4.810;2022-10-22T08:19:21;12.95;;;2.58;;
37527;SDS011;23372;52.050;4.810;2022-10-22T08:21:47;17.55;;;3.33;;
37527;SDS011;23372;52.050;4.810;2022-10-22T08:24:13;21.60;;;3.38;;
37527;SDS011;23372;52.050;4.810;2022-10-22T08:26:39;14.68;;;3.67;;
37527;SDS011;23372;52.050;4.810;2022-10-22T08:29:05;18.92;;;2.70;;
37527;SDS011;23372;52.050;4.810;2022-10-22T08:31:31;15.80;;;3.13;;
37527;SDS011;23372;52.050;4.810;2022-10-22T08:33:57;13.35;;;2.72;;
37527;SDS011;23372;52.050;4.810;2022-10-22T08:36:22;13.55;;;3.00;;
37527;SDS011;23372;52.050;4.810;2022-10-22T08:38:48;15.10;;;2.83;;
37527;SDS011;23372;52.050;4.810;2022-10-22T08:41:15;14.88;;;2.65;;
37527;SDS011;23372;52.050;4.810;2022-10-22T08:49:22;18.98;;;2.35;;
37527;SDS011;23372;52.050;4.810;2022-10-22T08:51:51;15.82;;;2.95;;
37527;SDS011;23372;52.050;4.810;2022-10-22T08:54:21;12.75;;;2.70;;
37527;SDS011;23372;52.050;4.810;2022-10-22T08:59:36;16.50;;;2.88;;
37527;SDS011;23372;52.050;4.810;2022-10-22T09:02:13;12.95;;;2.40;;
37527;SDS011;23372;52.050;4.810;2022-10-22T09:05:01;11.05;;;2.50;;
37527;SDS011;23372;52.050;4.810;2022-10-22T09:07:50;14.40;;;3.35;;
37527;SDS011;23372;52.050;4.810;2022-10-22T09:10:17;16.23;;;2.85;;
37527;SDS011;23372;52.050;4.810;2022-10-22T09:12:46;11.23;;;2.30;;
37527;SDS011;23372;52.050;4.810;2022-10-22T09:15:13;9.68;;;2.30;;
37527;SDS011;23372;52.050;4.810;2022-10-22T09:18:02;13.30;;;2.75;;
37527;SDS011;23372;52.050;4.810;2022-10-22T09:20:32;11.82;;;2.90;;
37527;SDS011;23372;52.050;4.810;2022-10-22T09:23:44;9.48;;;2.10;;
37527;SDS011;23372;52.050;4.810;2022-10-22T09:26:08;14.80;;;2.95;;
37527;SDS011;23372;52.050;4.810;2022-10-22T09:28:37;9.95;;;3.25;;
37527;SDS011;23372;52.050;4.810;2022-10-22T09:31:08;9.68;;;3.30;;
37527;SDS011;23372;52.050;4.810;2022-10-22T09:33:39;11.68;;;3.50;;
37527;SDS011;23372;52.050;4.810;2022-10-22T09:36:05;10.73;;;2.47;;
37527;SDS011;23372;52.050;4.810;2022-10-22T09:39:05;15.68;;;3.92;;
37527;SDS011;23372;52.050;4.810;2022-10-22T09:41:25;12.77;;;3.03;;
37527;SDS011;23372;52.050;4.810;2022-10-22T09:43:56;9.70;;;2.85;;
37527;SDS011;23372;52.050;4.810;2022-10-22T09:46:23;12.20;;;3.30;;
37527;SDS011;23372;52.050;4.810;2022-10-22T09:48:58;9.48;;;2.28;;
37527;SDS011;23372;52.050;4.810;2022-10-22T09:54:16;10.80;;;3.00;;
37527;SDS011;23372;52.050;4.810;2022-10-22T09:56:50;14.63;;;2.70;;
37527;SDS011;23372;52.050;4.810;2022-10-22T09:59:42;12.13;;;3.35;;
37527;SDS011;23372;52.050;4.810;2022-10-22T10:02:12;8.15;;;2.97;;
37527;SDS011;23372;52.050;4.810;2022-10-22T10:04:47;9.43;;;2.17;;
37527;SDS011;23372;52.050;4.810;2022-10-22T10:07:19;14.65;;;2.83;;
37527;SDS011;23372;52.050;4.810;2022-10-22T10:09:50;12.57;;;2.55;;
37527;SDS011;23372;52.050;4.810;2022-10-22T10:30:49;11.05;;;2.65;;
37527;SDS011;23372;52.050;4.810;2022-10-22T10:36:42;11.00;;;2.78;;
37527;SDS011;23372;52.050;4.810;2022-10-22T10:39:12;11.25;;;1.90;;
37527;SDS011;23372;52.050;4.810;2022-10-22T10:44:29;8.13;;;1.70;;
37527;SDS011;23372;52.050;4.810;2022-10-22T10:47:04;9.55;;;2.42;;
37527;SDS011;23372;52.050;4.810;2022-10-22T10:49:56;14.52;;;2.60;;
37527;SDS011;23372;52.050;4.810;2022-10-22T10:52:44;11.60;;;1.90;;
37527;SDS011;23372;52.050;4.810;2022-10-22T10:55:23;12.02;;;2.97;;
37527;SDS011;23372;52.050;4.810;2022-10-22T10:58:17;12.95;;;1.85;;
37527;SDS011;23372;52.050;4.810;2022-10-22T11:00:59;18.63;;;3.13;;
37527;SDS011;23372;52.050;4.810;2022-10-22T11:03:46;10.85;;;1.90;;
37527;SDS011;23372;52.050;4.810;2022-10-22T11:06:23;9.95;;;1.73;;
37527;SDS011;23372;52.050;4.810;2022-10-22T11:09:06;17.75;;;3.33;;
37527;SDS011;23372;52.050;4.810;2022-10-22T11:12:04;11.25;;;2.03;;
37527;SDS011;23372;52.050;4.810;2022-10-22T11:14:31;9.80;;;2.03;;
37527;SDS011;23372;52.050;4.810;2022-10-22T11:17:22;15.43;;;1.88;;
37527;SDS011;23372;52.050;4.810;2022-10-22T11:19:51;14.82;;;2.10;;
37527;SDS011;23372;52.050;4.810;2022-10-22T11:22:30;10.75;;;2.10;;
37527;SDS011;23372;52.050;4.810;2022-10-22T11:25:01;12.70;;;2.20;;
37527;SDS011;23372;52.050;4.810;2022-10-22T11:27:51;13.23;;;2.38;;
37527;SDS011;23372;52.050;4.810;2022-10-22T11:30:18;15.52;;;2.50;;
37527;SDS011;23372;52.050;4.810;2022-10-22T11:32:47;15.32;;;2.13;;
37527;SDS011;23372;52.050;4.810;2022-10-22T11:35:41;8.75;;;2.30;;
37527;SDS011;23372;52.050;4.810;2022-10-22T11:38:06;19.55;;;2.13;;
37527;SDS011;23372;52.050;4.810;2022-10-22T11:40:38;12.90;;;2.35;;
37527;SDS011;23372;52.050;4.810;2022-10-22T11:43:30;11.02;;;2.33;;
37527;SDS011;23372;52.050;4.810;2022-10-22T11:46:00;15.18;;;2.58;;
37527;SDS011;23372;52.050;4.810;2022-10-22T11:48:35;12.23;;;2.30;;
37527;SDS011;23372;52.050;4.810;2022-10-22T11:51:02;13.85;;;2.55;;
37527;SDS011;23372;52.050;4.810;2022-10-22T11:53:29;18.73;;;2.63;;
37527;SDS011;23372;52.050;4.810;2022-10-22T11:56:42;16.08;;;2.40;;
37527;SDS011;23372;52.050;4.810;2022-10-22T11:58:46;15.27;;;2.47;;
37527;SDS011;23372;52.050;4.810;2022-10-22T12:03:46;11.75;;;1.95;;
37527;SDS011;23372;52.050;4.810;2022-10-22T12:06:50;11.77;;;2.13;;
37527;SDS011;23372;52.050;4.810;2022-10-22T12:09:17;9.95;;;2.13;;
37527;SDS011;23372;52.050;4.810;2022-10-22T12:11:46;15.45;;;3.58;;
37527;SDS011;23372;52.050;4.810;2022-10-22T12:14:24;11.93;;;2.60;;
37527;SDS011;23372;52.050;4.810;2022-10-22T12:17:06;9.13;;;1.95;;
37527;SDS011;23372;52.050;4.810;2022-10-22T12:19:35;16.45;;;2.30;;
37527;SDS011;23372;52.050;4.810;2022-10-22T12:24:33;12.38;;;1.83;;
37527;SDS011;23372;52.050;4.810;2022-10-22T12:27:01;12.77;;;2.50;;
37527;SDS011;23372;52.050;4.810;2022-10-22T12:29:30;13.43;;;2.47;;
37527;SDS011;23372;52.050;4.810;2022-10-22T12:31:56;11.15;;;2.45;;
37527;SDS011;23372;52.050;4.810;2022-10-22T12:34:28;11.00;;;2.13;;
37527;SDS011;23372;52.050;4.810;2022-10-22T12:36:53;13.73;;;2.70;;
37527;SDS011;23372;52.050;4.810;2022-10-22T12:39:25;11.02;;;2.65;;
37527;SDS011;23372;52.050;4.810;2022-10-22T12:41:52;11.00;;;2.75;;
37527;SDS011;23372;52.050;4.810;2022-10-22T12:44:18;13.27;;;2.83;;
37527;SDS011;23372;52.050;4.810;2022-10-22T12:46:45;12.90;;;2.88;;
37527;SDS011;23372;52.050;4.810;2022-10-22T12:49:16;17.40;;;3.63;;
37527;SDS011;23372;52.050;4.810;2022-10-22T12:51:45;16.60;;;3.05;;
37527;SDS011;23372;52.050;4.810;2022-10-22T12:54:24;18.15;;;3.25;;
37527;SDS011;23372;52.050;4.810;2022-10-22T12:56:52;17.00;;;3.28;;
37527;SDS011;23372;52.050;4.810;2022-10-22T12:59:35;15.75;;;3.33;;
37527;SDS011;23372;52.050;4.810;2022-10-22T13:02:24;14.90;;;3.30;;
37527;SDS011;23372;52.050;4.810;2022-10-22T13:07:45;15.27;;;3.80;;
37527;SDS011;23372;52.050;4.810;2022-10-22T13:10:17;14.73;;;3.35;;
37527;SDS011;23372;52.050;4.810;2022-10-22T13:12:49;14.68;;;3.22;;
37527;SDS011;23372;52.050;4.810;2022-10-22T13:15:19;14.73;;;3.45;;
37527;SDS011;23372;52.050;4.810;2022-10-22T13:18:03;17.08;;;3.20;;
37527;SDS011;23372;52.050;4.810;2022-10-22T13:20:54;12.35;;;3.03;;
37527;SDS011;23372;52.050;4.810;2022-10-22T13:23:26;17.73;;;3.30;;
37527;SDS011;23372;52.050;4.810;2022-10-22T13:26:01;18.75;;;3.40;;
37527;SDS011;23372;52.050;4.810;2022-10-22T13:28:34;10.77;;;2.75;;
37527;SDS011;23372;52.050;4.810;2022-10-22T13:31:01;18.13;;;3.00;;
37527;SDS011;23372;52.050;4.810;2022-10-22T13:33:33;19.63;;;2.72;;
37527;SDS011;23372;52.050;4.810;2022-10-22T13:36:01;15.93;;;2.80;;
37527;SDS011;23372;52.050;4.810;2022-10-22T13:38:28;9.40;;;2.20;;
37527;SDS011;23372;52.050;4.810;2022-10-22T13:40:54;14.88;;;3.00;;
37527;SDS011;23372;52.050;4.810;2022-10-22T13:43:20;18.60;;;2.80;;
37527;SDS011;23372;52.050;4.810;2022-10-22T13:45:46;11.35;;;2.75;;
37527;SDS011;23372;52.050;4.810;2022-10-22T13:48:18;15.15;;;3.17;;
37527;SDS011;23372;52.050;4.810;2022-10-22T13:50:46;13.52;;;2.17;;
37527;SDS011;23372;52.050;4.810;2022-10-22T13:53:14;16.20;;;2.10;;
37527;SDS011;23372;52.050;4.810;2022-10-22T13:55:42;14.27;;;2.70;;
37527;SDS011;23372;52.050;4.810;2022-10-22T13:58:18;13.05;;;2.85;;
37527;SDS011;23372;52.050;4.810;2022-10-22T14:00:46;14.98;;;2.28;;
37527;SDS011;23372;52.050;4.810;2022-10-22T14:03:15;15.45;;;2.50;;
37527;SDS011;23372;52.050;4.810;2022-10-22T14:05:47;13.73;;;2.45;;
37527;SDS011;23372;52.050;4.810;2022-10-22T14:08:14;17.67;;;2.70;;
37527;SDS011;23372;52.050;4.810;2022-10-22T14:10:42;15.52;;;3.05;;
37527;SDS011;23372;52.050;4.810;2022-10-22T14:13:12;9.43;;;1.98;;
37527;SDS011;23372;52.050;4.810;2022-10-22T14:15:38;12.60;;;2.40;;
37527;SDS011;23372;52.050;4.810;2022-10-22T14:18:05;9.48;;;2.30;;
37527;SDS011;23372;52.050;4.810;2022-10-22T14:20:32;16.17;;;2.30;;
37527;SDS011;23372;52.050;4.810;2022-10-22T14:23:02;8.75;;;2.40;;
37527;SDS011;23372;52.050;4.810;2022-10-22T14:25:38;15.20;;;2.28;;
37527;SDS011;23372;52.050;4.810;2022-10-22T14:28:04;15.35;;;3.50;;
37527;SDS011;23372;52.050;4.810;2022-10-22T14:30:29;12.25;;;1.92;;
37527;SDS011;23372;52.050;4.810;2022-10-22T14:32:57;14.18;;;2.85;;
37527;SDS011;23372;52.050;4.810;2022-10-22T14:35:22;16.92;;;3.05;;
37527;SDS011;23372;52.050;4.810;2022-10-22T14:37:49;14.23;;;2.13;;
37527;SDS011;23372;52.050;4.810;2022-10-22T14:40:16;15.82;;;2.38;;
37527;SDS011;23372;52.050;4.810;2022-10-22T14:42:44;14.18;;;2.22;;
37527;SDS011;23372;52.050;4.810;2022-10-22T14:45:13;13.40;;;2.45;;
37527;SDS011;23372;52.050;4.810;2022-10-22T14:47:42;11.00;;;2.33;;
37527;SDS011;23372;52.050;4.810;2022-10-22T14:50:08;16.23;;;2.78;;
37527;SDS011;23372;52.050;4.810;2022-10-22T14:52:34;22.10;;;3.83;;
37527;SDS011;23372;52.050;4.810;2022-10-22T14:54:59;15.63;;;2.88;;
37527;SDS011;23372;52.050;4.810;2022-10-22T14:57:25;10.82;;;2.40;;
37527;SDS011;23372;52.050;4.810;2022-10-22T14:59:50;11.32;;;2.28;;
37527;SDS011;23372;52.050;4.810;2022-10-22T15:02:19;15.45;;;2.65;;
37527;SDS011;23372;52.050;4.810;2022-10-22T15:04:45;16.90;;;2.47;;
37527;SDS011;23372;52.050;4.810;2022-10-22T15:07:11;17.83;;;3.47;;
37527;SDS011;23372;52.050;4.810;2022-10-22T15:09:37;14.50;;;2.25;;
37527;SDS011;23372;52.050;4.810;2022-10-22T15:12:03;14.10;;;3.30;;
37527;SDS011;23372;52.050;4.810;2022-10-22T15:14:28;9.88;;;2.08;;
37527;SDS011;23372;52.050;4.810;2022-10-22T15:16:54;14.15;;;2.80;;
37527;SDS011;23372;52.050;4.810;2022-10-22T15:19:19;12.15;;;2.65;;
37527;SDS011;23372;52.050;4.810;2022-10-22T15:21:45;14.73;;;2.65;;
37527;SDS011;23372;52.050;4.810;2022-10-22T15:24:10;16.75;;;2.60;;
37527;SDS011;23372;52.050;4.810;2022-10-22T15:26:36;9.10;;;2.00;;
37527;SDS011;23372;52.050;4.810;2022-10-22T15:29:02;14.60;;;3.17;;
37527;SDS011;23372;52.050;4.810;2022-10-22T15:31:48;11.55;;;2.03;;
37527;SDS011;23372;52.050;4.810;2022-10-22T15:34:21;12.30;;;2.38;;
37527;SDS011;23372;52.050;4.810;2022-10-22T15:36:49;19.48;;;2.42;;
37527;SDS011;23372;52.050;4.810;2022-10-22T15:39:15;11.02;;;2.20;;
37527;SDS011;23372;52.050;4.810;2022-10-22T15:41:41;18.17;;;2.75;;
37527;SDS011;23372;52.050;4.810;2022-10-22T15:44:06;23.73;;;2.67;;
37527;SDS011;23372;52.050;4.810;2022-10-22T15:46:35;17.58;;;2.67;;
37527;SDS011;23372;52.050;4.810;2022-10-22T15:49:00;9.52;;;2.10;;
37527;SDS011;23372;52.050;4.810;2022-10-22T15:51:26;17.35;;;3.20;;